Time;durP1;ratioP1;P1;durP2;ratioP2;P2;SDS_P1;SDS_P2;PMS_P1;PMS_P2;Temp;Humidity;BMP_temperature;BMP_pressure;BME280_temperature;BME280_humidity;BME280_pressure;Samples;Min_cycle;Max_cycle;Signal;HPM_P1;HPM_P2
2023/04/29 00:00:19;;;;;;;38.15;20.35;;;;;;;;;;5178910;27;20053;-60
2023/04/29 00:02:46;;;;;;;39.75;19.90;;;;;;;;;;5184066;27;20048;-60
2023/04/29 00:05:13;;;;;;;38.95;20.67;;;;;;;;;;5167467;27;20559;-60
2023/04/29 00:07:40;;;;;;;38.00;19.98;;;;;;;;;;5180761;27;20051;-60
2023/04/29 00:10:06;;;;;;;35.80;18.80;;;;;;;;;;5184702;27;20143;-60
2023/04/29 00:12:33;;;;;;;38.03;20.13;;;;;;;;;;5186293;27;20050;-60
2023/04/29 00:15:01;;;;;;;40.72;20.98;;;;;;;;;;5164662;27;20047;-59
2023/04/29 00:17:28;;;;;;;41.60;20.55;;;;;;;;;;5177020;27;20056;-60
2023/04/29 00:19:54;;;;;;;38.83;21.02;;;;;;;;;;5167287;27;20507;-60
2023/04/29 00:22:21;;;;;;;38.03;19.80;;;;;;;;;;5182343;27;20599;-60
2023/04/29 00:24:48;;;;;;;38.72;20.08;;;;;;;;;;5180950;27;20054;-59
2023/04/29 00:27:15;;;;;;;40.90;21.05;;;;;;;;;;5181805;27;20046;-60
2023/04/29 00:29:42;;;;;;;36.92;20.45;;;;;;;;;;5183338;27;20534;-60
2023/04/29 00:32:08;;;;;;;38.28;20.55;;;;;;;;;;5180006;27;20050;-60
2023/04/29 00:34:35;;;;;;;32.72;19.45;;;;;;;;;;5184372;27;20472;-60
2023/04/29 00:37:01;;;;;;;39.72;20.27;;;;;;;;;;5176879;27;20064;-60
2023/04/29 00:39:27;;;;;;;38.40;20.05;;;;;;;;;;5178787;27;20050;-60
2023/04/29 00:41:54;;;;;;;36.50;19.50;;;;;;;;;;5184286;27;20898;-59
2023/04/29 00:44:21;;;;;;;35.88;20.63;;;;;;;;;;5174864;27;20505;-60
2023/04/29 00:46:47;;;;;;;34.35;19.25;;;;;;;;;;5185639;27;20050;-60
2023/04/29 00:49:13;;;;;;;33.65;19.13;;;;;;;;;;5183255;27;20057;-60
2023/04/29 00:51:40;;;;;;;34.03;19.25;;;;;;;;;;5177914;27;20082;-60
2023/04/29 00:54:07;;;;;;;31.05;18.05;;;;;;;;;;5180663;27;20531;-59
2023/04/29 00:56:34;;;;;;;31.48;17.70;;;;;;;;;;5183706;27;20076;-59
2023/04/29 00:59:02;;;;;;;30.63;17.42;;;;;;;;;;5179310;27;20053;-60
2023/04/29 01:01:29;;;;;;;32.20;18.45;;;;;;;;;;5183030;27;20054;-60
2023/04/29 01:03:56;;;;;;;29.83;17.02;;;;;;;;;;5159315;27;20057;-60
2023/04/29 01:06:42;;;;;;;33.60;17.75;;;;;;;;;;5178393;27;20057;-60
2023/04/29 01:09:09;;;;;;;;;;;;;;;;;;5171542;27;20520;-60
2023/04/29 01:11:43;;;;;;;31.52;15.85;;;;;;;;;;5180394;27;43495;-59
2023/04/29 01:14:10;;;;;;;32.03;17.85;;;;;;;;;;5182750;27;20084;-60
2023/04/29 01:16:37;;;;;;;31.92;17.23;;;;;;;;;;5182950;27;20054;-60
2023/04/29 01:19:23;;;;;;;29.30;18.00;;;;;;;;;;5182341;27;20192;-60
2023/04/29 01:21:49;;;;;;;35.22;17.67;;;;;;;;;;5175438;27;20449;-60
2023/04/29 01:24:16;;;;;;;24.17;17.15;;;;;;;;;;5176944;27;20057;-59
2023/04/29 01:26:44;;;;;;;31.13;19.40;;;;;;;;;;5155725;27;20075;-59
2023/04/29 01:29:27;;;;;;;29.23;17.40;;;;;;;;;;5161935;27;20052;-60
2023/04/29 01:32:00;;;;;;;32.53;18.00;;;;;;;;;;5170063;27;20958;-61
2023/04/29 01:34:33;;;;;;;29.05;18.20;;;;;;;;;;5170789;27;20423;-61
2023/04/29 01:37:06;;;;;;;31.63;17.20;;;;;;;;;;5181019;27;20703;-60
2023/04/29 01:39:36;;;;;;;28.58;17.63;;;;;;;;;;5181670;27;20506;-60
2023/04/29 01:42:18;;;;;;;30.65;17.90;;;;;;;;;;5179399;27;20134;-60
2023/04/29 01:44:46;;;;;;;31.75;18.58;;;;;;;;;;5154992;27;20050;-60
2023/04/29 01:47:12;;;;;;;35.33;19.92;;;;;;;;;;5172334;27;20505;-58
2023/04/29 01:49:39;;;;;;;28.30;17.17;;;;;;;;;;5177381;27;20104;-60
2023/04/29 01:52:06;;;;;;;28.17;17.70;;;;;;;;;;5180375;27;20569;-60
2023/04/29 01:54:35;;;;;;;27.42;17.83;;;;;;;;;;5172733;27;20050;-60
2023/04/29 01:57:02;;;;;;;30.40;18.13;;;;;;;;;;5180546;27;20089;-60
2023/04/29 01:59:29;;;;;;;30.48;17.23;;;;;;;;;;5180931;27;20054;-62
2023/04/29 02:01:57;;;;;;;31.35;17.77;;;;;;;;;;5184818;27;20053;-60
2023/04/29 02:04:24;;;;;;;28.38;17.42;;;;;;;;;;5181926;27;20054;-59
2023/04/29 02:06:54;;;;;;;30.60;16.85;;;;;;;;;;5186368;27;20523;-60
2023/04/29 02:09:20;;;;;;;28.88;16.90;;;;;;;;;;5186501;27;20046;-60
2023/04/29 02:11:46;;;;;;;32.10;16.70;;;;;;;;;;5184311;27;20559;-60
2023/04/29 02:14:13;;;;;;;28.17;16.70;;;;;;;;;;5185217;27;20050;-60
2023/04/29 02:16:39;;;;;;;24.90;16.10;;;;;;;;;;5185174;27;20133;-60
2023/04/29 02:19:05;;;;;;;25.70;15.85;;;;;;;;;;5178258;27;20054;-60
2023/04/29 02:21:33;;;;;;;25.52;15.63;;;;;;;;;;5182054;27;20051;-60
2023/04/29 02:24:00;;;;;;;21.30;13.55;;;;;;;;;;5175903;27;20173;-60
2023/04/29 02:26:27;;;;;;;21.15;12.55;;;;;;;;;;5180124;27;20583;-61
2023/04/29 02:28:53;;;;;;;24.48;15.25;;;;;;;;;;5187118;27;20053;-61
2023/04/29 02:31:20;;;;;;;24.52;14.18;;;;;;;;;;5178364;27;20496;-59
2023/04/29 02:33:46;;;;;;;24.02;13.90;;;;;;;;;;5182496;27;20086;-59
2023/04/29 02:36:13;;;;;;;21.35;13.65;;;;;;;;;;5185281;27;20065;-60
2023/04/29 02:38:39;;;;;;;20.25;12.70;;;;;;;;;;5186701;27;20046;-60
2023/04/29 02:41:05;;;;;;;22.38;13.10;;;;;;;;;;5186739;27;20046;-60
2023/04/29 02:43:32;;;;;;;28.60;14.65;;;;;;;;;;5183542;27;20050;-60
2023/04/29 02:45:59;;;;;;;22.77;13.70;;;;;;;;;;5184772;27;20052;-60
2023/04/29 02:48:25;;;;;;;25.92;14.38;;;;;;;;;;5183562;27;20053;-60
2023/04/29 02:50:52;;;;;;;21.55;13.32;;;;;;;;;;5185889;27;20046;-58
2023/04/29 02:53:19;;;;;;;25.20;12.13;;;;;;;;;;5166255;27;20082;-60
2023/04/29 02:55:46;;;;;;;22.25;13.63;;;;;;;;;;5177976;27;20645;-60
2023/04/29 02:58:12;;;;;;;23.15;13.38;;;;;;;;;;5185781;27;20062;-60
2023/04/29 03:00:41;;;;;;;22.05;13.18;;;;;;;;;;5186437;27;20050;-60
2023/04/29 03:03:08;;;;;;;25.85;14.13;;;;;;;;;;5184473;27;20759;-60
2023/04/29 03:05:35;;;;;;;23.00;14.13;;;;;;;;;;5183022;27;20107;-59
2023/04/29 03:08:02;;;;;;;24.27;14.15;;;;;;;;;;5184725;27;20051;-60
2023/04/29 03:10:29;;;;;;;24.63;14.23;;;;;;;;;;5184505;27;20655;-60
2023/04/29 03:12:55;;;;;;;26.35;14.90;;;;;;;;;;5172732;27;20504;-60
2023/04/29 03:15:22;;;;;;;26.92;13.50;;;;;;;;;;5184803;27;20050;-60
2023/04/29 03:17:48;;;;;;;23.95;14.32;;;;;;;;;;5183683;27;20058;-61
2023/04/29 03:20:15;;;;;;;28.08;15.48;;;;;;;;;;5184158;27;20103;-60
2023/04/29 03:22:41;;;;;;;23.48;15.07;;;;;;;;;;5167950;27;20915;-60
2023/04/29 03:25:09;;;;;;;25.52;14.98;;;;;;;;;;5179295;27;20054;-59
2023/04/29 03:27:35;;;;;;;23.50;14.15;;;;;;;;;;5184150;27;20050;-59
2023/04/29 03:30:02;;;;;;;22.15;15.10;;;;;;;;;;5181812;27;20141;-60
2023/04/29 03:32:29;;;;;;;26.75;15.05;;;;;;;;;;5181737;27;20503;-59
2023/04/29 03:34:56;;;;;;;24.42;15.20;;;;;;;;;;5167919;27;20054;-59
2023/04/29 03:37:22;;;;;;;24.13;15.23;;;;;;;;;;5177484;27;20050;-61
2023/04/29 03:39:49;;;;;;;23.73;14.82;;;;;;;;;;5184956;27;20526;-60
2023/04/29 03:42:16;;;;;;;23.70;15.70;;;;;;;;;;5166436;27;20038;-60
2023/04/29 03:44:42;;;;;;;22.58;15.07;;;;;;;;;;5183713;27;20066;-60
2023/04/29 03:47:08;;;;;;;25.95;15.50;;;;;;;;;;5185004;27;20050;-60
2023/04/29 03:49:35;;;;;;;29.67;15.85;;;;;;;;;;5184441;27;20089;-58
2023/04/29 03:52:02;;;;;;;27.33;16.05;;;;;;;;;;5184641;27;20050;-60
2023/04/29 03:54:29;;;;;;;27.77;15.65;;;;;;;;;;5163516;27;20159;-60
2023/04/29 03:56:56;;;;;;;25.63;15.00;;;;;;;;;;5184813;27;20096;-58
2023/04/29 03:59:22;;;;;;;21.92;15.52;;;;;;;;;;5184774;27;20632;-60
2023/04/29 04:01:49;;;;;;;23.15;15.23;;;;;;;;;;5162792;27;20141;-60
2023/04/29 04:04:16;;;;;;;20.70;13.88;;;;;;;;;;5180459;27;20526;-60
2023/04/29 04:06:43;;;;;;;21.98;14.63;;;;;;;;;;5175560;27;20126;-60
2023/04/29 04:09:10;;;;;;;22.23;14.90;;;;;;;;;;5164875;27;20064;-59
2023/04/29 04:11:36;;;;;;;23.13;14.10;;;;;;;;;;5183959;27;20133;-60
2023/04/29 04:14:04;;;;;;;22.10;12.95;;;;;;;;;;5183421;27;20157;-60
2023/04/29 04:16:30;;;;;;;21.02;13.65;;;;;;;;;;5181275;27;20165;-60
2023/04/29 04:18:58;;;;;;;19.10;13.23;;;;;;;;;;5182080;27;20046;-60
2023/04/29 04:21:24;;;;;;;18.55;11.98;;;;;;;;;;5185391;27;20049;-60
2023/04/29 04:23:50;;;;;;;20.70;12.82;;;;;;;;;;5164376;27;20053;-60
2023/04/29 04:26:17;;;;;;;17.40;12.02;;;;;;;;;;5178307;27;20050;-60
2023/04/29 04:28:43;;;;;;;19.20;11.77;;;;;;;;;;5179294;27;20046;-58
2023/04/29 04:31:10;;;;;;;15.73;12.05;;;;;;;;;;5184536;27;20132;-59
2023/04/29 04:33:36;;;;;;;16.83;12.65;;;;;;;;;;5180740;27;20504;-60
2023/04/29 04:36:03;;;;;;;21.23;12.57;;;;;;;;;;5178355;27;20146;-60
2023/04/29 04:38:31;;;;;;;19.42;12.10;;;;;;;;;;5183238;27;20159;-60
2023/04/29 04:40:58;;;;;;;21.15;12.25;;;;;;;;;;5180727;27;20050;-59
2023/04/29 04:43:25;;;;;;;18.75;12.35;;;;;;;;;;5185578;27;20053;-60
2023/04/29 04:45:52;;;;;;;20.80;12.55;;;;;;;;;;5183721;27;20050;-60
2023/04/29 04:48:18;;;;;;;17.90;11.80;;;;;;;;;;5183830;27;20980;-62
2023/04/29 04:50:45;;;;;;;17.42;11.35;;;;;;;;;;5164333;27;20050;-58
2023/04/29 04:53:11;;;;;;;16.98;11.27;;;;;;;;;;5164365;27;20134;-60
2023/04/29 04:55:37;;;;;;;19.90;11.60;;;;;;;;;;5180696;27;21366;-60
2023/04/29 04:58:04;;;;;;;19.92;12.50;;;;;;;;;;5164850;27;20107;-60
2023/04/29 05:00:30;;;;;;;18.92;11.88;;;;;;;;;;5173149;27;20130;-60
2023/04/29 05:02:57;;;;;;;18.17;11.57;;;;;;;;;;5180816;27;20057;-59
2023/04/29 05:05:24;;;;;;;19.38;11.65;;;;;;;;;;5175950;27;20138;-60
2023/04/29 05:07:50;;;;;;;14.82;11.38;;;;;;;;;;5180731;27;20047;-60
2023/04/29 05:10:17;;;;;;;16.33;12.35;;;;;;;;;;5182783;27;20050;-60
2023/04/29 05:12:43;;;;;;;17.90;12.07;;;;;;;;;;5182599;27;20203;-60
2023/04/29 05:15:09;;;;;;;18.15;11.68;;;;;;;;;;5181490;27;20123;-60
2023/04/29 05:17:36;;;;;;;17.98;11.25;;;;;;;;;;5184843;27;20053;-59
2023/04/29 05:20:02;;;;;;;16.50;11.75;;;;;;;;;;5187647;27;20047;-60
2023/04/29 05:22:29;;;;;;;16.75;11.00;;;;;;;;;;5185337;27;20085;-60
2023/04/29 05:25:01;;;;;;;16.40;11.73;;;;;;;;;;5181120;27;20056;-60
2023/04/29 05:27:29;;;;;;;16.20;11.18;;;;;;;;;;5182454;27;20053;-61
2023/04/29 05:29:55;;;;;;;17.15;11.60;;;;;;;;;;5163628;27;20061;-60
2023/04/29 05:32:22;;;;;;;20.67;12.05;;;;;;;;;;5162405;27;20129;-60
2023/04/29 05:34:49;;;;;;;22.58;13.25;;;;;;;;;;5154262;27;20174;-60
2023/04/29 05:37:15;;;;;;;19.33;12.52;;;;;;;;;;5161413;27;20502;-60
2023/04/29 05:39:42;;;;;;;20.38;12.35;;;;;;;;;;5163875;27;20888;-60
2023/04/29 05:42:08;;;;;;;20.05;12.18;;;;;;;;;;5165706;27;20086;-60
2023/04/29 05:44:35;;;;;;;23.83;12.73;;;;;;;;;;5134917;27;20051;-60
2023/04/29 05:47:01;;;;;;;25.27;12.68;;;;;;;;;;5160063;27;20050;-60
2023/04/29 05:49:27;;;;;;;22.65;12.85;;;;;;;;;;5155448;27;20582;-59
2023/04/29 05:51:54;;;;;;;18.88;12.63;;;;;;;;;;5146489;27;20059;-60
2023/04/29 05:54:21;;;;;;;19.10;12.82;;;;;;;;;;5166909;27;20061;-60
2023/04/29 05:56:47;;;;;;;25.75;15.30;;;;;;;;;;5160440;27;20062;-60
2023/04/29 05:59:15;;;;;;;25.05;14.50;;;;;;;;;;5164296;27;20505;-60
2023/04/29 06:01:41;;;;;;;23.08;14.23;;;;;;;;;;5166788;27;20061;-60
2023/04/29 06:04:08;;;;;;;19.85;14.10;;;;;;;;;;5164782;27;20061;-60
2023/04/29 06:06:34;;;;;;;21.55;12.60;;;;;;;;;;5164968;27;20057;-59
2023/04/29 06:09:01;;;;;;;23.25;13.73;;;;;;;;;;5160699;27;20471;-60
2023/04/29 06:11:29;;;;;;;25.77;13.55;;;;;;;;;;5160591;27;20668;-60
2023/04/29 06:13:56;;;;;;;21.77;13.77;;;;;;;;;;5165319;27;20074;-60
2023/04/29 06:16:22;;;;;;;25.13;13.27;;;;;;;;;;5132722;27;20497;-60
2023/04/29 06:18:49;;;;;;;23.13;12.82;;;;;;;;;;5157027;27;20495;-60
2023/04/29 06:21:15;;;;;;;20.77;12.48;;;;;;;;;;5163241;27;20538;-60
2023/04/29 06:23:42;;;;;;;20.38;12.07;;;;;;;;;;5162528;27;20046;-60
2023/04/29 06:26:08;;;;;;;21.73;12.73;;;;;;;;;;5159001;27;20051;-60
2023/04/29 06:28:34;;;;;;;29.15;13.65;;;;;;;;;;5157281;27;20055;-60
2023/04/29 06:31:01;;;;;;;17.45;11.93;;;;;;;;;;5155251;27;20059;-60
2023/04/29 06:33:29;;;;;;;20.85;12.52;;;;;;;;;;5162834;27;20054;-60
2023/04/29 06:35:56;;;;;;;23.48;13.27;;;;;;;;;;5153731;27;20055;-60
2023/04/29 06:38:22;;;;;;;24.95;14.65;;;;;;;;;;5165061;27;20539;-60
2023/04/29 06:40:49;;;;;;;25.52;12.75;;;;;;;;;;5160381;27;20055;-60
2023/04/29 06:43:15;;;;;;;20.25;12.77;;;;;;;;;;5156240;27;20053;-60
2023/04/29 06:45:45;;;;;;;20.98;12.00;;;;;;;;;;5161708;27;20050;-60
2023/04/29 06:48:11;;;;;;;19.35;11.18;;;;;;;;;;5164137;27;20420;-60
2023/04/29 06:50:38;;;;;;;17.50;11.48;;;;;;;;;;5160822;27;20051;-60
2023/04/29 06:53:04;;;;;;;21.15;11.93;;;;;;;;;;5161125;27;20062;-60
2023/04/29 06:55:31;;;;;;;17.23;11.25;;;;;;;;;;5160091;27;20058;-58
2023/04/29 06:57:57;;;;;;;17.42;11.68;;;;;;;;;;5137634;27;20516;-60
2023/04/29 07:00:24;;;;;;;17.15;11.48;;;;;;;;;;5155138;27;20544;-59
2023/04/29 07:02:50;;;;;;;19.38;12.18;;;;;;;;;;5164642;27;20090;-60
2023/04/29 07:05:17;;;;;;;17.10;10.90;;;;;;;;;;5158466;27;20051;-60
2023/04/29 07:07:43;;;;;;;18.92;11.27;;;;;;;;;;5162113;27;20074;-60
2023/04/29 07:10:10;;;;;;;17.30;10.73;;;;;;;;;;5162627;27;20046;-61
2023/04/29 07:12:36;;;;;;;18.45;10.27;;;;;;;;;;5140258;27;20494;-60
2023/04/29 07:15:03;;;;;;;17.95;10.15;;;;;;;;;;5160243;27;20508;-60
2023/04/29 07:17:30;;;;;;;21.05;10.80;;;;;;;;;;5159314;27;20066;-59
2023/04/29 07:19:56;;;;;;;18.65;9.82;;;;;;;;;;5156199;27;20061;-60
2023/04/29 07:22:23;;;;;;;15.13;10.27;;;;;;;;;;5146381;27;20105;-60
2023/04/29 07:24:51;;;;;;;22.15;10.30;;;;;;;;;;5155186;27;20614;-61
2023/04/29 07:27:18;;;;;;;18.63;10.13;;;;;;;;;;5151918;27;20393;-59
2023/04/29 07:29:44;;;;;;;17.02;9.80;;;;;;;;;;5153521;27;20066;-61
2023/04/29 07:32:11;;;;;;;16.23;8.90;;;;;;;;;;5154301;27;20100;-59
2023/04/29 07:34:37;;;;;;;16.75;9.30;;;;;;;;;;5164177;27;20103;-60
2023/04/29 07:37:04;;;;;;;14.80;8.93;;;;;;;;;;5165522;27;20059;-60
2023/04/29 07:39:30;;;;;;;15.35;8.60;;;;;;;;;;5159304;27;20524;-60
2023/04/29 07:41:58;;;;;;;16.98;8.57;;;;;;;;;;5152593;27;20057;-61
2023/04/29 07:44:25;;;;;;;14.20;8.75;;;;;;;;;;5156619;27;20079;-60
2023/04/29 07:46:51;;;;;;;8.82;7.22;;;;;;;;;;5153865;27;20047;-61
2023/04/29 07:49:18;;;;;;;14.55;8.25;;;;;;;;;;5154316;27;20050;-61
2023/04/29 07:51:44;;;;;;;14.95;7.78;;;;;;;;;;5155498;27;20637;-61
2023/04/29 07:54:11;;;;;;;13.88;7.53;;;;;;;;;;5156017;27;20138;-60
2023/04/29 07:56:37;;;;;;;10.60;6.68;;;;;;;;;;5159397;27;20468;-60
2023/04/29 07:59:04;;;;;;;9.35;7.15;;;;;;;;;;5160590;27;20464;-61
2023/04/29 08:01:30;;;;;;;11.20;6.63;;;;;;;;;;5154808;27;20054;-61
2023/04/29 08:03:57;;;;;;;15.55;7.53;;;;;;;;;;5160085;27;20047;-59
2023/04/29 08:06:24;;;;;;;12.38;7.70;;;;;;;;;;5159979;27;20055;-61
2023/04/29 08:08:51;;;;;;;16.27;7.47;;;;;;;;;;5163821;27;20138;-60
2023/04/29 08:11:18;;;;;;;10.90;6.82;;;;;;;;;;5154991;27;20589;-61
2023/04/29 08:13:45;;;;;;;11.57;6.75;;;;;;;;;;5150141;27;20131;-61
2023/04/29 08:16:12;;;;;;;8.90;6.57;;;;;;;;;;5141873;27;20055;-61
2023/04/29 08:18:38;;;;;;;12.93;7.18;;;;;;;;;;5150545;27;20051;-58
2023/04/29 08:21:05;;;;;;;12.57;7.22;;;;;;;;;;5161581;27;20061;-61
2023/04/29 08:23:31;;;;;;;9.77;6.85;;;;;;;;;;5164756;27;20414;-61
2023/04/29 08:25:58;;;;;;;12.80;7.25;;;;;;;;;;5166700;27;20544;-61
2023/04/29 08:28:26;;;;;;;13.27;7.70;;;;;;;;;;5155072;27;20058;-61
2023/04/29 08:30:53;;;;;;;13.07;7.72;;;;;;;;;;5161371;27;20076;-61
2023/04/29 08:33:19;;;;;;;9.52;6.90;;;;;;;;;;5152890;27;20061;-61
2023/04/29 08:35:46;;;;;;;11.20;6.82;;;;;;;;;;5156464;27;20058;-60
2023/04/29 08:38:12;;;;;;;13.48;6.80;;;;;;;;;;5159282;27;20529;-60
2023/04/29 08:40:42;;;;;;;13.20;7.60;;;;;;;;;;5163889;27;20055;-61
2023/04/29 08:43:09;;;;;;;9.85;6.78;;;;;;;;;;5164894;27;20552;-61
2023/04/29 08:45:35;;;;;;;8.15;6.25;;;;;;;;;;5132183;27;20058;-63
2023/04/29 08:48:05;;;;;;;10.02;6.28;;;;;;;;;;5157522;27;20391;-61
2023/04/29 08:50:35;;;;;;;8.50;6.65;;;;;;;;;;5160333;27;20047;-62
2023/04/29 08:53:02;;;;;;;11.43;6.05;;;;;;;;;;5158145;27;20496;-60
2023/04/29 08:55:28;;;;;;;9.80;5.63;;;;;;;;;;5160868;27;20432;-60
2023/04/29 08:57:55;;;;;;;9.65;6.22;;;;;;;;;;5145113;27;20504;-59
2023/04/29 09:00:23;;;;;;;8.10;6.25;;;;;;;;;;5151284;27;20055;-60
2023/04/29 09:02:51;;;;;;;11.38;6.07;;;;;;;;;;5164283;27;20078;-61
2023/04/29 09:05:17;;;;;;;10.75;6.80;;;;;;;;;;5139237;27;20347;-61
2023/04/29 09:07:44;;;;;;;14.48;6.55;;;;;;;;;;5146023;27;20051;-60
2023/04/29 09:10:11;;;;;;;11.02;6.35;;;;;;;;;;5150404;27;20535;-60
2023/04/29 09:12:38;;;;;;;10.75;5.82;;;;;;;;;;5160307;27;20109;-60
2023/04/29 09:15:05;;;;;;;10.02;6.50;;;;;;;;;;5149212;27;20133;-60
2023/04/29 09:17:40;;;;;;;9.52;5.40;;;;;;;;;;5167458;27;20074;-60
2023/04/29 09:20:22;;;;;;;9.80;5.40;;;;;;;;;;5162929;27;20047;-60
2023/04/29 09:22:49;;;;;;;9.02;5.70;;;;;;;;;;5166883;27;20503;-60
2023/04/29 09:25:15;;;;;;;10.98;5.97;;;;;;;;;;5149131;27;20043;-59
2023/04/29 09:27:42;;;;;;;11.63;5.75;;;;;;;;;;5165198;27;20090;-60
2023/04/29 09:30:08;;;;;;;6.68;5.32;;;;;;;;;;5167419;27;20500;-60
2023/04/29 09:32:35;;;;;;;7.68;5.28;;;;;;;;;;5166704;27;20057;-60
2023/04/29 09:35:23;;;;;;;8.40;5.50;;;;;;;;;;5165140;27;20497;-60
2023/04/29 09:37:52;;;;;;;6.95;5.07;;;;;;;;;;5145164;27;20134;-60
2023/04/29 09:40:29;;;;;;;8.48;5.55;;;;;;;;;;5167209;27;20050;-60
2023/04/29 09:42:56;;;;;;;9.07;5.57;;;;;;;;;;5165830;27;20127;-60
2023/04/29 09:45:36;;;;;;;7.78;5.90;;;;;;;;;;5161212;27;20108;-60
2023/04/29 09:48:03;;;;;;;10.35;5.43;;;;;;;;;;5162652;27;20513;-60
2023/04/29 09:50:31;;;;;;;13.82;5.68;;;;;;;;;;5166434;27;20058;-60
2023/04/29 09:52:58;;;;;;;11.38;5.20;;;;;;;;;;5152327;27;20157;-61
2023/04/29 09:55:26;;;;;;;11.60;5.82;;;;;;;;;;5154862;27;20143;-60
2023/04/29 09:57:52;;;;;;;10.52;5.60;;;;;;;;;;5152563;27;20565;-60
2023/04/29 10:00:19;;;;;;;8.35;5.97;;;;;;;;;;5165380;27;20057;-60
2023/04/29 10:02:46;;;;;;;8.45;5.43;;;;;;;;;;5158484;27;20082;-60
2023/04/29 10:05:13;;;;;;;7.75;5.30;;;;;;;;;;5164953;27;20051;-61
2023/04/29 10:07:40;;;;;;;7.38;5.57;;;;;;;;;;5160332;27;20051;-60
2023/04/29 10:10:09;;;;;;;8.93;5.30;;;;;;;;;;5166082;27;20065;-60
2023/04/29 10:12:36;;;;;;;8.70;5.00;;;;;;;;;;5146683;27;20055;-61
2023/04/29 10:15:11;;;;;;;11.77;5.90;;;;;;;;;;5164899;27;20055;-61
2023/04/29 10:17:41;;;;;;;8.55;5.15;;;;;;;;;;5158049;27;20100;-60
2023/04/29 10:20:08;;;;;;;6.07;5.20;;;;;;;;;;5165105;27;20054;-61
2023/04/29 10:22:41;;;;;;;8.75;4.85;;;;;;;;;;5164199;27;20051;-62
2023/04/29 10:25:09;;;;;;;7.50;5.25;;;;;;;;;;5162347;27;20129;-62
2023/04/29 10:27:36;;;;;;;5.93;4.40;;;;;;;;;;5160344;27;20057;-61
2023/04/29 10:30:04;;;;;;;9.93;4.93;;;;;;;;;;5160309;27;20046;-62
2023/04/29 10:32:33;;;;;;;7.32;4.60;;;;;;;;;;5145221;27;20100;-62
2023/04/29 10:35:21;;;;;;;5.67;3.70;;;;;;;;;;5162469;27;20058;-61
2023/04/29 10:37:48;;;;;;;5.53;4.40;;;;;;;;;;5166300;27;20416;-62
2023/04/29 10:40:17;;;;;;;7.78;3.97;;;;;;;;;;5151982;27;20502;-62
2023/04/29 10:42:51;;;;;;;6.88;4.05;;;;;;;;;;5150609;27;20055;-62
2023/04/29 10:45:22;;;;;;;6.30;4.05;;;;;;;;;;5160158;27;20080;-62
2023/04/29 10:48:01;;;;;;;5.03;3.88;;;;;;;;;;5145376;27;20092;-62
2023/04/29 10:50:28;;;;;;;7.00;3.88;;;;;;;;;;5154188;27;20047;-62
2023/04/29 10:52:55;;;;;;;4.85;3.67;;;;;;;;;;5152261;27;20383;-62
2023/04/29 10:55:24;;;;;;;7.95;3.72;;;;;;;;;;5164578;27;20080;-62
2023/04/29 10:57:57;;;;;;;5.35;4.32;;;;;;;;;;5162582;27;20653;-62
2023/04/29 11:00:28;;;;;;;5.43;4.32;;;;;;;;;;5166426;27;20047;-62
2023/04/29 11:02:55;;;;;;;8.05;4.57;;;;;;;;;;5144493;27;20071;-62
2023/04/29 11:05:32;;;;;;;7.93;4.55;;;;;;;;;;5151469;27;20058;-63
2023/04/29 11:08:08;;;;;;;7.78;4.45;;;;;;;;;;5151790;27;20054;-62
2023/04/29 11:10:43;;;;;;;5.47;4.20;;;;;;;;;;5164243;27;20066;-62
2023/04/29 11:13:27;;;;;;;7.82;4.07;;;;;;;;;;5164944;27;20165;-63
2023/04/29 11:16:04;;;;;;;5.25;3.78;;;;;;;;;;5164861;27;20062;-62
2023/04/29 11:18:30;;;;;;;4.30;3.35;;;;;;;;;;5141861;27;20633;-63
2023/04/29 11:21:03;;;;;;;8.98;4.50;;;;;;;;;;5147157;27;20090;-62
2023/04/29 11:23:30;;;;;;;7.13;4.78;;;;;;;;;;5153941;27;20091;-62
2023/04/29 11:25:57;;;;;;;5.78;4.13;;;;;;;;;;5161871;27;20509;-62
2023/04/29 11:28:26;;;;;;;12.40;4.95;;;;;;;;;;5145219;27;20043;-61
2023/04/29 11:30:52;;;;;;;9.15;4.95;;;;;;;;;;5155919;27;20055;-62
2023/04/29 11:33:19;;;;;;;10.07;5.38;;;;;;;;;;5160439;27;20063;-58
2023/04/29 11:35:46;;;;;;;7.47;4.82;;;;;;;;;;5164497;27;20580;-62
2023/04/29 11:38:12;;;;;;;8.27;5.32;;;;;;;;;;5165383;27;20066;-62
2023/04/29 11:40:57;;;;;;;7.60;5.30;;;;;;;;;;5164799;27;20045;-62
2023/04/29 11:43:24;;;;;;;6.45;4.90;;;;;;;;;;5155342;27;20081;-61
2023/04/29 11:45:51;;;;;;;7.53;4.68;;;;;;;;;;5143866;27;20051;-62
2023/04/29 11:48:18;;;;;;;7.53;4.43;;;;;;;;;;5145040;27;20371;-60
2023/04/29 11:50:45;;;;;;;8.43;4.50;;;;;;;;;;5156955;27;20062;-60
2023/04/29 11:53:12;;;;;;;7.90;4.60;;;;;;;;;;5155046;27;20047;-60
2023/04/29 11:55:41;;;;;;;5.82;4.13;;;;;;;;;;5160042;27;20050;-62
2023/04/29 11:58:08;;;;;;;5.97;4.80;;;;;;;;;;5150827;27;20146;-62
2023/04/29 12:00:35;;;;;;;10.02;4.65;;;;;;;;;;5143786;27;20051;-61
2023/04/29 12:03:06;;;;;;;6.82;4.82;;;;;;;;;;5157252;27;20050;-61
2023/04/29 12:05:32;;;;;;;9.15;4.82;;;;;;;;;;5164198;27;20146;-61
2023/04/29 12:07:59;;;;;;;7.78;4.35;;;;;;;;;;5164350;27;20051;-64
2023/04/29 12:10:25;;;;;;;6.95;4.88;;;;;;;;;;5146899;27;20059;-64
2023/04/29 12:12:52;;;;;;;8.43;5.18;;;;;;;;;;5135040;27;20058;-65
2023/04/29 12:15:19;;;;;;;8.82;4.97;;;;;;;;;;5162657;27;20046;-65
2023/04/29 12:17:46;;;;;;;9.20;5.25;;;;;;;;;;5148774;27;20058;-63
2023/04/29 12:20:12;;;;;;;8.77;5.18;;;;;;;;;;5144297;27;20083;-64
2023/04/29 12:22:40;;;;;;;8.65;5.38;;;;;;;;;;5143703;27;20051;-64
2023/04/29 12:25:06;;;;;;;11.65;5.82;;;;;;;;;;5156955;27;20526;-63
2023/04/29 12:27:34;;;;;;;7.13;4.75;;;;;;;;;;5154517;27;20237;-63
2023/04/29 12:30:00;;;;;;;8.70;4.45;;;;;;;;;;5143431;27;20139;-62
2023/04/29 12:32:27;;;;;;;5.90;5.20;;;;;;;;;;5144603;27;20095;-63
2023/04/29 12:34:53;;;;;;;8.35;5.03;;;;;;;;;;5160006;27;20050;-63
2023/04/29 12:37:22;;;;;;;8.50;5.05;;;;;;;;;;5152647;27;20061;-64
2023/04/29 12:39:49;;;;;;;8.40;5.22;;;;;;;;;;5156758;27;20411;-64
2023/04/29 12:42:18;;;;;;;9.65;5.25;;;;;;;;;;5164678;27;20046;-63
2023/04/29 12:44:46;;;;;;;5.82;4.18;;;;;;;;;;5163883;27;20051;-63
2023/04/29 12:47:13;;;;;;;6.22;4.15;;;;;;;;;;5152116;27;20062;-61
2023/04/29 12:49:45;;;;;;;8.38;4.07;;;;;;;;;;5147475;27;20051;-63
2023/04/29 12:52:12;;;;;;;10.07;4.85;;;;;;;;;;5163702;27;20138;-63
2023/04/29 12:54:42;;;;;;;9.00;4.82;;;;;;;;;;5163417;27;20542;-63
2023/04/29 12:57:09;;;;;;;6.65;4.65;;;;;;;;;;5157790;27;20073;-63
2023/04/29 12:59:36;;;;;;;7.68;4.28;;;;;;;;;;5163498;27;20625;-64
2023/04/29 13:02:03;;;;;;;7.43;4.18;;;;;;;;;;5158853;27;20152;-63
2023/04/29 13:04:30;;;;;;;5.25;3.72;;;;;;;;;;5143509;27;20099;-62
2023/04/29 13:07:01;;;;;;;5.80;3.92;;;;;;;;;;5135280;27;20602;-62
2023/04/29 13:09:29;;;;;;;9.52;4.50;;;;;;;;;;5160430;27;20752;-63
2023/04/29 13:11:56;;;;;;;8.48;5.22;;;;;;;;;;5157629;27;20074;-63
2023/04/29 13:14:23;;;;;;;7.18;3.83;;;;;;;;;;5159596;27;20150;-63
2023/04/29 13:16:49;;;;;;;7.20;4.35;;;;;;;;;;5150149;27;20646;-62
2023/04/29 13:19:15;;;;;;;6.15;4.10;;;;;;;;;;5164521;27;20053;-62
2023/04/29 13:21:55;;;;;;;6.40;4.20;;;;;;;;;;5164743;27;20443;-62
2023/04/29 13:24:21;;;;;;;7.35;4.22;;;;;;;;;;5164975;27;20058;-62
2023/04/29 13:26:48;;;;;;;7.82;4.60;;;;;;;;;;5162811;27;20046;-62
2023/04/29 13:29:17;;;;;;;7.05;4.38;;;;;;;;;;5145008;27;20889;-62
2023/04/29 13:31:46;;;;;;;11.75;5.53;;;;;;;;;;5165161;27;20047;-62
2023/04/29 13:34:12;;;;;;;6.30;4.13;;;;;;;;;;5162262;27;20480;-62
2023/04/29 13:36:39;;;;;;;6.18;4.45;;;;;;;;;;5163610;27;21073;-62
2023/04/29 13:39:05;;;;;;;8.90;4.80;;;;;;;;;;5163575;27;20057;-62
2023/04/29 13:41:33;;;;;;;5.43;4.20;;;;;;;;;;5164639;27;20055;-62
2023/04/29 13:44:01;;;;;;;6.22;4.38;;;;;;;;;;5165135;27;20089;-62
2023/04/29 13:46:28;;;;;;;7.65;4.13;;;;;;;;;;5163099;27;20051;-62
2023/04/29 13:48:57;;;;;;;6.68;5.28;;;;;;;;;;5163564;27;20541;-63
2023/04/29 13:51:43;;;;;;;8.13;4.65;;;;;;;;;;5164525;27;20050;-61
2023/04/29 13:54:12;;;;;;;5.78;3.95;;;;;;;;;;5164515;27;20057;-62
2023/04/29 13:56:42;;;;;;;10.68;4.60;;;;;;;;;;5165673;27;20058;-62
2023/04/29 13:59:29;;;;;;;7.68;4.53;;;;;;;;;;5166828;27;20047;-63
2023/04/29 14:02:13;;;;;;;7.63;4.30;;;;;;;;;;5149743;27;20050;-62
2023/04/29 14:04:51;;;;;;;7.43;4.70;;;;;;;;;;5162619;27;20055;-62
2023/04/29 14:07:18;;;;;;;8.05;3.88;;;;;;;;;;5164068;27;20503;-62
2023/04/29 14:09:45;;;;;;;7.63;4.38;;;;;;;;;;5167079;27;20509;-62
2023/04/29 14:12:11;;;;;;;6.40;3.85;;;;;;;;;;5167993;27;20070;-62
2023/04/29 14:14:38;;;;;;;6.43;4.10;;;;;;;;;;5166663;27;20103;-62
2023/04/29 14:17:04;;;;;;;5.75;4.00;;;;;;;;;;5166360;27;20080;-62
2023/04/29 14:19:31;;;;;;;6.15;3.90;;;;;;;;;;5167348;27;20047;-62
2023/04/29 14:21:58;;;;;;;5.72;3.42;;;;;;;;;;5167381;27;20584;-62
2023/04/29 14:24:24;;;;;;;9.52;4.13;;;;;;;;;;5167469;27;20047;-63
2023/04/29 14:26:52;;;;;;;9.55;3.88;;;;;;;;;;5166757;27;20051;-62
2023/04/29 14:29:18;;;;;;;5.22;3.63;;;;;;;;;;5165542;27;20054;-62
2023/04/29 14:31:44;;;;;;;6.47;3.35;;;;;;;;;;5166325;27;20082;-62